sensor_id;sensor_type;location;lat;lon;timestamp;pressure;altitude;pressure_sealevel;temperature;humidity
5062;BME280;2351;50.812;12.872;2023-03-14T00:02:14;95778.44;;;9.12;100.00
5062;BME280;2351;50.812;12.872;2023-03-14T00:04:45;95773.81;;;9.14;100.00
5062;BME280;2351;50.812;12.872;2023-03-14T00:07:18;95764.03;;;9.14;100.00
5062;BME280;2351;50.812;12.872;2023-03-14T00:09:50;95762.59;;;9.12;100.00
5062;BME280;2351;50.812;12.872;2023-03-14T00:12:22;95765.22;;;9.12;100.00
5062;BME280;2351;50.812;12.872;2023-03-14T00:14:54;95763.06;;;9.15;100.00
5062;BME280;2351;50.812;12.872;2023-03-14T00:17:26;95764.88;;;9.15;100.00
5062;BME280;2351;50.812;12.872;2023-03-14T00:19:57;95765.75;;;9.07;100.00
5062;BME280;2351;50.812;12.872;2023-03-14T00:22:36;95773.00;;;9.05;100.00
5062;BME280;2351;50.812;12.872;2023-03-14T00:25:09;95770.91;;;9.00;100.00
5062;BME280;2351;50.812;12.872;2023-03-14T00:27:41;95772.63;;;8.93;100.00
5062;BME280;2351;50.812;12.872;2023-03-14T00:30:13;95775.25;;;8.93;100.00
5062;BME280;2351;50.812;12.872;2023-03-14T00:32:45;95790.44;;;8.91;100.00
5062;BME280;2351;50.812;12.872;2023-03-14T00:35:16;95792.94;;;8.84;100.00
5062;BME280;2351;50.812;12.872;2023-03-14T00:37:50;95807.28;;;8.82;100.00
5062;BME280;2351;50.812;12.872;2023-03-14T00:40:21;95816.06;;;8.82;100.00
5062;BME280;2351;50.812;12.872;2023-03-14T00:42:53;95821.00;;;8.77;100.00
5062;BME280;2351;50.812;12.872;2023-03-14T00:45:25;95818.88;;;8.72;100.00
5062;BME280;2351;50.812;12.872;2023-03-14T00:47:56;95834.41;;;8.67;100.00
5062;BME280;2351;50.812;12.872;2023-03-14T00:50:28;95844.13;;;8.67;100.00
5062;BME280;2351;50.812;12.872;2023-03-14T00:53:01;95832.78;;;8.66;100.00
5062;BME280;2351;50.812;12.872;2023-03-14T00:55:36;95814.63;;;8.71;100.00
5062;BME280;2351;50.812;12.872;2023-03-14T00:58:09;95808.84;;;8.68;100.00
5062;BME280;2351;50.812;12.872;2023-03-14T01:00:41;95820.88;;;8.70;100.00
5062;BME280;2351;50.812;12.872;2023-03-14T01:03:14;95812.59;;;8.73;100.00
5062;BME280;2351;50.812;12.872;2023-03-14T01:05:46;95822.16;;;8.74;100.00
5062;BME280;2351;50.812;12.872;2023-03-14T01:08:19;95828.78;;;8.70;100.00
5062;BME280;2351;50.812;12.872;2023-03-14T01:10:51;95842.13;;;8.69;100.00
5062;BME280;2351;50.812;12.872;2023-03-14T01:13:22;95846.59;;;8.68;100.00
5062;BME280;2351;50.812;12.872;2023-03-14T01:15:54;95846.72;;;8.75;100.00
5062;BME280;2351;50.812;12.872;2023-03-14T01:18:26;95857.03;;;8.93;100.00
5062;BME280;2351;50.812;12.872;2023-03-14T01:20:58;95857.19;;;8.92;100.00
5062;BME280;2351;50.812;12.872;2023-03-14T01:23:31;95856.84;;;8.95;100.00
5062;BME280;2351;50.812;12.872;2023-03-14T01:26:03;95845.13;;;8.97;100.00
5062;BME280;2351;50.812;12.872;2023-03-14T01:28:34;95851.25;;;8.98;100.00
5062;BME280;2351;50.812;12.872;2023-03-14T01:31:08;95844.47;;;8.95;100.00
5062;BME280;2351;50.812;12.872;2023-03-14T01:33:40;95841.16;;;9.01;100.00
5062;BME280;2351;50.812;12.872;2023-03-14T01:36:12;95843.47;;;8.96;100.00
5062;BME280;2351;50.812;12.872;2023-03-14T01:38:46;95835.19;;;9.08;100.00
5062;BME280;2351;50.812;12.872;2023-03-14T01:41:19;95833.19;;;9.10;100.00
5062;BME280;2351;50.812;12.872;2023-03-14T01:43:52;95837.47;;;9.11;100.00
5062;BME280;2351;50.812;12.872;2023-03-14T01:46:38;95823.56;;;9.17;100.00
5062;BME280;2351;50.812;12.872;2023-03-14T01:49:18;95820.59;;;9.20;100.00
5062;BME280;2351;50.812;12.872;2023-03-14T01:51:55;95820.06;;;9.25;100.00
5062;BME280;2351;50.812;12.872;2023-03-14T01:54:32;95813.97;;;9.24;100.00
5062;BME280;2351;50.812;12.872;2023-03-14T01:57:07;95828.44;;;9.28;100.00
5062;BME280;2351;50.812;12.872;2023-03-14T01:59:41;95818.25;;;9.25;100.00
5062;BME280;2351;50.812;12.872;2023-03-14T02:02:15;95822.06;;;9.23;100.00
5062;BME280;2351;50.812;12.872;2023-03-14T02:04:47;95810.91;;;9.12;100.00
5062;BME280;2351;50.812;12.872;2023-03-14T02:07:22;95817.78;;;9.22;100.00
5062;BME280;2351;50.812;12.872;2023-03-14T02:09:59;95819.34;;;9.31;100.00
5062;BME280;2351;50.812;12.872;2023-03-14T02:12:32;95803.69;;;9.29;100.00
5062;BME280;2351;50.812;12.872;2023-03-14T02:15:06;95792.72;;;9.17;100.00
5062;BME280;2351;50.812;12.872;2023-03-14T02:17:40;95788.16;;;9.34;100.00
5062;BME280;2351;50.812;12.872;2023-03-14T02:20:22;95774.88;;;9.43;100.00
5062;BME280;2351;50.812;12.872;2023-03-14T02:22:57;95774.16;;;9.49;100.00
5062;BME280;2351;50.812;12.872;2023-03-14T02:25:39;95763.59;;;9.49;100.00
5062;BME280;2351;50.812;12.872;2023-03-14T02:28:15;95765.97;;;9.44;100.00
5062;BME280;2351;50.812;12.872;2023-03-14T02:30:47;95769.25;;;9.46;100.00
5062;BME280;2351;50.812;12.872;2023-03-14T02:33:20;95766.25;;;9.49;99.05
5062;BME280;2351;50.812;12.872;2023-03-14T02:35:53;95766.25;;;9.49;99.38
5062;BME280;2351;50.812;12.872;2023-03-14T02:38:29;95759.03;;;9.43;98.82
5062;BME280;2351;50.812;12.872;2023-03-14T02:41:03;95747.47;;;9.44;98.22
5062;BME280;2351;50.812;12.872;2023-03-14T02:43:36;95747.19;;;9.39;98.30
5062;BME280;2351;50.812;12.872;2023-03-14T02:46:10;95736.16;;;9.35;98.09
5062;BME280;2351;50.812;12.872;2023-03-14T02:48:45;95730.09;;;9.34;97.85
5062;BME280;2351;50.812;12.872;2023-03-14T02:51:20;95735.88;;;9.30;97.78
5062;BME280;2351;50.812;12.872;2023-03-14T02:53:53;95725.84;;;9.25;97.80
5062;BME280;2351;50.812;12.872;2023-03-14T02:56:24;95718.94;;;9.24;97.93
5062;BME280;2351;50.812;12.872;2023-03-14T02:58:57;95713.66;;;9.24;97.94
5062;BME280;2351;50.812;12.872;2023-03-14T03:01:29;95737.13;;;9.19;97.98
5062;BME280;2351;50.812;12.872;2023-03-14T03:04:01;95751.31;;;9.18;97.79
5062;BME280;2351;50.812;12.872;2023-03-14T03:09:57;95746.91;;;9.10;97.92
5062;BME280;2351;50.812;12.872;2023-03-14T03:12:29;95741.34;;;9.05;98.57
5062;BME280;2351;50.812;12.872;2023-03-14T03:15:03;95749.78;;;9.00;98.58
5062;BME280;2351;50.812;12.872;2023-03-14T03:17:35;95763.19;;;8.99;98.53
5062;BME280;2351;50.812;12.872;2023-03-14T03:20:08;95773.88;;;8.97;98.46
5062;BME280;2351;50.812;12.872;2023-03-14T03:22:40;95766.94;;;9.04;98.01
5062;BME280;2351;50.812;12.872;2023-03-14T03:25:11;95756.59;;;8.95;98.27
5062;BME280;2351;50.812;12.872;2023-03-14T03:27:43;95771.78;;;8.93;97.96
5062;BME280;2351;50.812;12.872;2023-03-14T03:30:17;95768.69;;;8.89;97.79
5062;BME280;2351;50.812;12.872;2023-03-14T03:32:49;95749.91;;;8.84;97.85
5062;BME280;2351;50.812;12.872;2023-03-14T03:35:20;95748.91;;;8.85;97.77
5062;BME280;2351;50.812;12.872;2023-03-14T03:37:52;95733.09;;;8.85;97.62
5062;BME280;2351;50.812;12.872;2023-03-14T03:40:24;95731.78;;;8.81;97.12
5062;BME280;2351;50.812;12.872;2023-03-14T03:42:56;95729.84;;;8.74;97.75
5062;BME280;2351;50.812;12.872;2023-03-14T03:45:29;95733.84;;;8.70;97.36
5062;BME280;2351;50.812;12.872;2023-03-14T03:48:01;95745.22;;;8.71;97.37
5062;BME280;2351;50.812;12.872;2023-03-14T03:50:32;95744.44;;;8.62;97.54
5062;BME280;2351;50.812;12.872;2023-03-14T03:53:04;95749.41;;;8.57;97.63
5062;BME280;2351;50.812;12.872;2023-03-14T03:55:36;95747.06;;;8.62;97.68
5062;BME280;2351;50.812;12.872;2023-03-14T03:58:07;95740.50;;;8.58;97.18
5062;BME280;2351;50.812;12.872;2023-03-14T04:00:41;95750.09;;;8.51;97.48
5062;BME280;2351;50.812;12.872;2023-03-14T04:03:12;95750.44;;;8.48;97.77
5062;BME280;2351;50.812;12.872;2023-03-14T04:05:44;95743.66;;;8.53;97.45
5062;BME280;2351;50.812;12.872;2023-03-14T04:08:16;95757.50;;;8.47;97.67
5062;BME280;2351;50.812;12.872;2023-03-14T04:10:48;95759.00;;;8.50;97.32
5062;BME280;2351;50.812;12.872;2023-03-14T04:13:19;95759.31;;;8.55;96.93
5062;BME280;2351;50.812;12.872;2023-03-14T04:15:53;95762.91;;;8.62;96.95
5062;BME280;2351;50.812;12.872;2023-03-14T04:18:25;95768.84;;;8.56;97.02
5062;BME280;2351;50.812;12.872;2023-03-14T04:20:58;95769.19;;;8.53;97.36
5062;BME280;2351;50.812;12.872;2023-03-14T04:23:29;95767.94;;;8.49;97.23
5062;BME280;2351;50.812;12.872;2023-03-14T04:26:01;95769.38;;;8.51;97.42
5062;BME280;2351;50.812;12.872;2023-03-14T04:28:33;95770.38;;;8.50;98.04
5062;BME280;2351;50.812;12.872;2023-03-14T04:31:08;95755.97;;;8.61;97.83
5062;BME280;2351;50.812;12.872;2023-03-14T04:33:40;95755.63;;;8.64;97.52
5062;BME280;2351;50.812;12.872;2023-03-14T04:36:12;95758.94;;;8.66;97.23
5062;BME280;2351;50.812;12.872;2023-03-14T04:38:44;95741.59;;;8.72;96.64
5062;BME280;2351;50.812;12.872;2023-03-14T04:41:16;95737.59;;;8.76;96.37
5062;BME280;2351;50.812;12.872;2023-03-14T04:43:47;95735.50;;;8.71;96.75
5062;BME280;2351;50.812;12.872;2023-03-14T04:46:21;95741.78;;;8.70;96.81
5062;BME280;2351;50.812;12.872;2023-03-14T04:48:52;95730.56;;;8.68;96.86
5062;BME280;2351;50.812;12.872;2023-03-14T04:51:26;95732.56;;;8.66;97.09
5062;BME280;2351;50.812;12.872;2023-03-14T04:53:58;95725.63;;;8.65;97.08
5062;BME280;2351;50.812;12.872;2023-03-14T04:56:30;95728.22;;;8.73;96.61
5062;BME280;2351;50.812;12.872;2023-03-14T04:59:01;95726.44;;;8.66;96.79
5062;BME280;2351;50.812;12.872;2023-03-14T05:01:34;95725.97;;;8.62;97.15
5062;BME280;2351;50.812;12.872;2023-03-14T05:04:06;95725.53;;;8.58;96.72
5062;BME280;2351;50.812;12.872;2023-03-14T05:06:38;95727.16;;;8.59;97.39
5062;BME280;2351;50.812;12.872;2023-03-14T05:09:10;95722.34;;;8.63;96.83
5062;BME280;2351;50.812;12.872;2023-03-14T05:11:42;95718.88;;;8.63;97.23
5062;BME280;2351;50.812;12.872;2023-03-14T05:14:13;95707.34;;;8.64;96.76
5062;BME280;2351;50.812;12.872;2023-03-14T05:16:46;95700.56;;;8.69;96.37
5062;BME280;2351;50.812;12.872;2023-03-14T05:19:18;95704.84;;;8.70;95.88
5062;BME280;2351;50.812;12.872;2023-03-14T05:21:50;95703.84;;;8.71;95.76
5062;BME280;2351;50.812;12.872;2023-03-14T05:24:22;95694.91;;;8.72;95.05
5062;BME280;2351;50.812;12.872;2023-03-14T05:26:53;95690.19;;;8.68;95.12
5062;BME280;2351;50.812;12.872;2023-03-14T05:29:25;95702.91;;;8.64;95.58
5062;BME280;2351;50.812;12.872;2023-03-14T05:31:58;95688.72;;;8.65;95.98
5062;BME280;2351;50.812;12.872;2023-03-14T05:34:30;95686.00;;;8.73;95.28
5062;BME280;2351;50.812;12.872;2023-03-14T05:37:01;95690.94;;;8.77;94.48
5062;BME280;2351;50.812;12.872;2023-03-14T05:39:33;95693.75;;;8.75;95.19
5062;BME280;2351;50.812;12.872;2023-03-14T05:42:05;95688.50;;;8.75;95.01
5062;BME280;2351;50.812;12.872;2023-03-14T05:44:36;95683.91;;;8.69;95.56
5062;BME280;2351;50.812;12.872;2023-03-14T05:47:10;95678.47;;;8.70;95.81
5062;BME280;2351;50.812;12.872;2023-03-14T05:49:41;95681.63;;;8.66;95.66
5062;BME280;2351;50.812;12.872;2023-03-14T05:52:13;95688.72;;;8.65;95.53
5062;BME280;2351;50.812;12.872;2023-03-14T05:54:45;95676.47;;;8.72;95.12
5062;BME280;2351;50.812;12.872;2023-03-14T05:57:16;95682.09;;;8.69;95.24
5062;BME280;2351;50.812;12.872;2023-03-14T05:59:48;95695.63;;;8.66;95.79
5062;BME280;2351;50.812;12.872;2023-03-14T06:02:21;95687.88;;;8.65;95.94
5062;BME280;2351;50.812;12.872;2023-03-14T06:04:53;95686.09;;;8.65;96.06
5062;BME280;2351;50.812;12.872;2023-03-14T06:07:25;95687.53;;;8.68;95.91
5062;BME280;2351;50.812;12.872;2023-03-14T06:09:56;95683.38;;;8.73;96.03
5062;BME280;2351;50.812;12.872;2023-03-14T06:12:28;95698.59;;;8.71;96.24
5062;BME280;2351;50.812;12.872;2023-03-14T06:15:00;95695.28;;;8.69;96.21
5062;BME280;2351;50.812;12.872;2023-03-14T06:17:33;95705.31;;;8.74;95.88
5062;BME280;2351;50.812;12.872;2023-03-14T06:20:05;95713.75;;;8.69;95.82
5062;BME280;2351;50.812;12.872;2023-03-14T06:22:37;95715.03;;;8.73;95.92
5062;BME280;2351;50.812;12.872;2023-03-14T06:25:09;95717.66;;;8.73;96.38
5062;BME280;2351;50.812;12.872;2023-03-14T06:27:41;95712.38;;;8.73;96.42
5062;BME280;2351;50.812;12.872;2023-03-14T06:30:13;95699.38;;;8.72;96.66
5062;BME280;2351;50.812;12.872;2023-03-14T06:32:46;95705.47;;;8.72;96.68
5062;BME280;2351;50.812;12.872;2023-03-14T06:35:18;95685.78;;;8.83;96.15
5062;BME280;2351;50.812;12.872;2023-03-14T06:37:50;95688.25;;;8.85;95.78
5062;BME280;2351;50.812;12.872;2023-03-14T06:40:22;95687.41;;;8.84;96.06
5062;BME280;2351;50.812;12.872;2023-03-14T06:42:54;95696.16;;;8.85;95.75
5062;BME280;2351;50.812;12.872;2023-03-14T06:45:25;95680.78;;;8.88;96.33
5062;BME280;2351;50.812;12.872;2023-03-14T06:47:58;95697.97;;;8.84;95.94
5062;BME280;2351;50.812;12.872;2023-03-14T06:50:30;95693.69;;;8.83;96.13
5062;BME280;2351;50.812;12.872;2023-03-14T06:53:02;95700.00;;;8.82;96.29
5062;BME280;2351;50.812;12.872;2023-03-14T06:55:33;95693.19;;;8.88;96.18
5062;BME280;2351;50.812;12.872;2023-03-14T06:58:05;95704.50;;;8.97;96.05
5062;BME280;2351;50.812;12.872;2023-03-14T07:00:38;95693.03;;;9.04;95.42
5062;BME280;2351;50.812;12.872;2023-03-14T07:03:13;95695.63;;;9.13;94.67
5062;BME280;2351;50.812;12.872;2023-03-14T07:05:44;95694.78;;;9.12;95.04
5062;BME280;2351;50.812;12.872;2023-03-14T07:08:16;95700.53;;;9.16;95.02
5062;BME280;2351;50.812;12.872;2023-03-14T07:10:48;95702.41;;;9.07;94.60
5062;BME280;2351;50.812;12.872;2023-03-14T07:13:20;95712.44;;;9.12;94.92
5062;BME280;2351;50.812;12.872;2023-03-14T07:15:51;95716.25;;;9.09;94.58
5062;BME280;2351;50.812;12.872;2023-03-14T07:18:24;95718.00;;;9.17;94.31
5062;BME280;2351;50.812;12.872;2023-03-14T07:20:56;95721.72;;;9.08;93.37
5062;BME280;2351;50.812;12.872;2023-03-14T07:23:28;95726.81;;;9.09;93.87
5062;BME280;2351;50.812;12.872;2023-03-14T07:26:00;95725.00;;;9.10;93.21
5062;BME280;2351;50.812;12.872;2023-03-14T07:28:32;95719.88;;;9.08;93.46
5062;BME280;2351;50.812;12.872;2023-03-14T07:31:04;95719.25;;;9.06;93.08
5062;BME280;2351;50.812;12.872;2023-03-14T07:33:37;95722.72;;;9.07;92.79
5062;BME280;2351;50.812;12.872;2023-03-14T07:36:09;95729.00;;;9.06;92.36
5062;BME280;2351;50.812;12.872;2023-03-14T07:38:41;95715.78;;;9.06;92.54
5062;BME280;2351;50.812;12.872;2023-03-14T07:41:13;95712.44;;;9.12;92.29
5062;BME280;2351;50.812;12.872;2023-03-14T07:43:44;95718.00;;;9.17;92.19
5062;BME280;2351;50.812;12.872;2023-03-14T07:46:16;95719.78;;;9.25;91.87
5062;BME280;2351;50.812;12.872;2023-03-14T07:48:50;95721.78;;;9.23;90.91
5062;BME280;2351;50.812;12.872;2023-03-14T07:51:21;95717.59;;;9.28;91.46
5062;BME280;2351;50.812;12.872;2023-03-14T07:53:53;95707.13;;;9.35;90.23
5062;BME280;2351;50.812;12.872;2023-03-14T07:56:25;95703.03;;;9.32;89.52
5062;BME280;2351;50.812;12.872;2023-03-14T07:58:57;95715.50;;;9.39;89.84
5062;BME280;2351;50.812;12.872;2023-03-14T08:01:28;95718.44;;;9.44;89.86
5062;BME280;2351;50.812;12.872;2023-03-14T08:04:01;95711.34;;;9.44;89.60
5062;BME280;2351;50.812;12.872;2023-03-14T08:06:34;95708.22;;;9.41;88.73
5062;BME280;2351;50.812;12.872;2023-03-14T08:09:06;95711.16;;;9.46;88.62
5062;BME280;2351;50.812;12.872;2023-03-14T08:11:38;95712.78;;;9.47;88.14
5062;BME280;2351;50.812;12.872;2023-03-14T08:14:09;95696.25;;;9.53;88.87
5062;BME280;2351;50.812;12.872;2023-03-14T08:16:41;95691.06;;;9.60;88.65
5062;BME280;2351;50.812;12.872;2023-03-14T08:19:14;95697.16;;;9.75;89.81
5062;BME280;2351;50.812;12.872;2023-03-14T08:21:46;95694.59;;;10.12;89.58
5062;BME280;2351;50.812;12.872;2023-03-14T08:24:18;95695.88;;;10.16;87.96
5062;BME280;2351;50.812;12.872;2023-03-14T08:26:49;95679.28;;;10.22;88.22
5062;BME280;2351;50.812;12.872;2023-03-14T08:29:21;95673.56;;;10.55;90.95
5062;BME280;2351;50.812;12.872;2023-03-14T08:31:53;95666.22;;;11.23;91.02
5062;BME280;2351;50.812;12.872;2023-03-14T08:34:26;95682.25;;;11.71;86.53
5062;BME280;2351;50.812;12.872;2023-03-14T08:36:58;95663.84;;;11.63;82.03
5062;BME280;2351;50.812;12.872;2023-03-14T08:39:30;95658.06;;;11.46;80.26
5062;BME280;2351;50.812;12.872;2023-03-14T08:42:01;95664.88;;;11.34;80.89
5062;BME280;2351;50.812;12.872;2023-03-14T08:44:33;95669.13;;;11.28;80.69
5062;BME280;2351;50.812;12.872;2023-03-14T08:47:05;95679.06;;;11.26;79.16
5062;BME280;2351;50.812;12.872;2023-03-14T08:49:38;95677.81;;;11.22;79.55
5062;BME280;2351;50.812;12.872;2023-03-14T08:52:10;95686.09;;;11.12;79.73
5062;BME280;2351;50.812;12.872;2023-03-14T08:54:43;95681.75;;;11.04;79.09
5062;BME280;2351;50.812;12.872;2023-03-14T08:57:15;95691.44;;;10.97;78.22
5062;BME280;2351;50.812;12.872;2023-03-14T08:59:47;95692.97;;;10.84;78.23
5062;BME280;2351;50.812;12.872;2023-03-14T09:02:19;95694.88;;;10.69;77.68
5062;BME280;2351;50.812;12.872;2023-03-14T09:04:52;95704.47;;;10.55;78.57
5062;BME280;2351;50.812;12.872;2023-03-14T09:07:24;95718.88;;;10.52;79.23
5062;BME280;2351;50.812;12.872;2023-03-14T09:09:56;95712.09;;;10.43;79.08
5062;BME280;2351;50.812;12.872;2023-03-14T09:12:27;95722.03;;;10.41;79.77
5062;BME280;2351;50.812;12.872;2023-03-14T09:14:59;95729.22;;;10.32;79.90
5062;BME280;2351;50.812;12.872;2023-03-14T09:17:31;95717.44;;;10.20;79.87
5062;BME280;2351;50.812;12.872;2023-03-14T09:20:05;95726.31;;;10.12;80.43
5062;BME280;2351;50.812;12.872;2023-03-14T09:22:39;95728.66;;;10.07;80.72
5062;BME280;2351;50.812;12.872;2023-03-14T09:25:11;95724.38;;;10.06;81.25
5062;BME280;2351;50.812;12.872;2023-03-14T09:27:42;95729.59;;;10.14;81.36
5062;BME280;2351;50.812;12.872;2023-03-14T09:32:46;95734.59;;;10.24;81.54
5062;BME280;2351;50.812;12.872;2023-03-14T09:35:19;95728.66;;;10.22;82.06
5062;BME280;2351;50.812;12.872;2023-03-14T09:37:51;95722.94;;;10.18;81.70
5062;BME280;2351;50.812;12.872;2023-03-14T09:40:23;95727.59;;;10.16;81.99
5062;BME280;2351;50.812;12.872;2023-03-14T09:42:55;95736.97;;;10.19;82.04
5062;BME280;2351;50.812;12.872;2023-03-14T09:45:31;95732.88;;;10.16;81.76
5062;BME280;2351;50.812;12.872;2023-03-14T09:48:04;95733.22;;;10.13;82.25
5062;BME280;2351;50.812;12.872;2023-03-14T09:50:40;95733.06;;;10.15;81.78
5062;BME280;2351;50.812;12.872;2023-03-14T09:53:17;95721.47;;;10.16;81.68
5062;BME280;2351;50.812;12.872;2023-03-14T09:55:50;95730.44;;;10.15;81.33
5062;BME280;2351;50.812;12.872;2023-03-14T09:58:23;95734.69;;;10.16;81.59
5062;BME280;2351;50.812;12.872;2023-03-14T10:00:56;95733.88;;;10.15;81.88
5062;BME280;2351;50.812;12.872;2023-03-14T10:03:31;95723.66;;;10.12;82.03
5062;BME280;2351;50.812;12.872;2023-03-14T10:06:11;95725.13;;;10.15;82.15
5062;BME280;2351;50.812;12.872;2023-03-14T10:08:43;95726.22;;;10.20;82.15
5062;BME280;2351;50.812;12.872;2023-03-14T10:11:17;95734.66;;;10.31;82.24
5062;BME280;2351;50.812;12.872;2023-03-14T10:14:02;95729.59;;;10.44;81.45
5062;BME280;2351;50.812;12.872;2023-03-14T10:16:36;95734.50;;;10.47;79.87
5062;BME280;2351;50.812;12.872;2023-03-14T10:19:11;95723.72;;;10.49;80.04
5062;BME280;2351;50.812;12.872;2023-03-14T10:21:51;95727.31;;;10.41;80.19
5062;BME280;2351;50.812;12.872;2023-03-14T10:24:28;95718.88;;;10.37;80.23
5062;BME280;2351;50.812;12.872;2023-03-14T10:27:02;95719.09;;;10.51;80.24
5062;BME280;2351;50.812;12.872;2023-03-14T10:29:34;95715.44;;;10.52;80.19
5062;BME280;2351;50.812;12.872;2023-03-14T10:32:10;95732.06;;;10.67;80.49
5062;BME280;2351;50.812;12.872;2023-03-14T10:35:11;95723.84;;;10.99;81.32
5062;BME280;2351;50.812;12.872;2023-03-14T10:37:53;95720.44;;;11.27;78.40
5062;BME280;2351;50.812;12.872;2023-03-14T10:40:28;95728.94;;;11.44;77.84
5062;BME280;2351;50.812;12.872;2023-03-14T10:43:04;95720.81;;;11.52;77.23
5062;BME280;2351;50.812;12.872;2023-03-14T10:45:38;95724.00;;;11.41;74.14
5062;BME280;2351;50.812;12.872;2023-03-14T10:48:21;95719.72;;;11.40;74.60
5062;BME280;2351;50.812;12.872;2023-03-14T10:50:55;95733.47;;;11.07;73.92
5062;BME280;2351;50.812;12.872;2023-03-14T10:53:33;95735.81;;;10.95;74.11
5062;BME280;2351;50.812;12.872;2023-03-14T10:56:06;95733.69;;;10.83;74.17
5062;BME280;2351;50.812;12.872;2023-03-14T10:58:41;95735.78;;;10.73;74.75
5062;BME280;2351;50.812;12.872;2023-03-14T11:01:29;95734.03;;;10.80;75.35
5062;BME280;2351;50.812;12.872;2023-03-14T11:04:13;95723.91;;;10.84;75.05
5062;BME280;2351;50.812;12.872;2023-03-14T11:06:51;95735.88;;;10.80;75.70
5062;BME280;2351;50.812;12.872;2023-03-14T11:09:32;95736.97;;;10.85;75.78
5062;BME280;2351;50.812;12.872;2023-03-14T11:12:18;95732.72;;;10.91;75.94
5062;BME280;2351;50.812;12.872;2023-03-14T11:15:01;95729.03;;;11.07;76.40
5062;BME280;2351;50.812;12.872;2023-03-14T11:17:38;95725.03;;;11.40;74.61
5062;BME280;2351;50.812;12.872;2023-03-14T11:20:26;95721.22;;;11.49;75.10
5062;BME280;2351;50.812;12.872;2023-03-14T11:23:08;95727.34;;;11.50;74.40
5062;BME280;2351;50.812;12.872;2023-03-14T11:25:53;95724.69;;;11.50;74.11
5062;BME280;2351;50.812;12.872;2023-03-14T11:28:30;95731.75;;;11.42;73.49
5062;BME280;2351;50.812;12.872;2023-03-14T11:31:12;95732.28;;;11.31;73.98
5062;BME280;2351;50.812;12.872;2023-03-14T11:33:51;95743.56;;;11.18;74.46
5062;BME280;2351;50.812;12.872;2023-03-14T11:36:29;95728.88;;;11.15;74.88
5062;BME280;2351;50.812;12.872;2023-03-14T11:39:03;95725.47;;;11.22;74.70
5062;BME280;2351;50.812;12.872;2023-03-14T11:41:43;95731.16;;;11.19;75.37
5062;BME280;2351;50.812;12.872;2023-03-14T11:44:19;95740.47;;;11.14;75.79
5062;BME280;2351;50.812;12.872;2023-03-14T11:46:53;95729.78;;;11.01;76.32
5062;BME280;2351;50.812;12.872;2023-03-14T11:49:32;95736.34;;;11.05;76.11
5062;BME280;2351;50.812;12.872;2023-03-14T11:52:10;95737.28;;;10.97;76.56
5062;BME280;2351;50.812;12.872;2023-03-14T11:54:48;95737.97;;;11.06;76.96
5062;BME280;2351;50.812;12.872;2023-03-14T11:57:23;95732.34;;;11.16;77.58
5062;BME280;2351;50.812;12.872;2023-03-14T11:59:58;95719.44;;;11.28;77.43
5062;BME280;2351;50.812;12.872;2023-03-14T12:02:43;95722.16;;;11.41;77.10
5062;BME280;2351;50.812;12.872;2023-03-14T12:05:48;95718.97;;;11.46;77.14
5062;BME280;2351;50.812;12.872;2023-03-14T12:08:33;95717.00;;;11.55;77.13
5062;BME280;2351;50.812;12.872;2023-03-14T12:11:12;95723.38;;;11.67;76.88
5062;BME280;2351;50.812;12.872;2023-03-14T12:13:49;95717.69;;;11.70;75.62
5062;BME280;2351;50.812;12.872;2023-03-14T12:16:32;95712.41;;;11.70;75.81
5062;BME280;2351;50.812;12.872;2023-03-14T12:19:21;95709.97;;;11.69;75.42
5062;BME280;2351;50.812;12.872;2023-03-14T12:22:06;95699.28;;;11.62;75.25
5062;BME280;2351;50.812;12.872;2023-03-14T12:24:45;95709.03;;;11.55;75.64
5062;BME280;2351;50.812;12.872;2023-03-14T12:27:45;95707.84;;;11.57;76.25
5062;BME280;2351;50.812;12.872;2023-03-14T12:30:26;95709.69;;;11.57;76.08
5062;BME280;2351;50.812;12.872;2023-03-14T12:33:32;95711.97;;;11.67;75.67
5062;BME280;2351;50.812;12.872;2023-03-14T12:36:55;95709.75;;;11.70;76.23
5062;BME280;2351;50.812;12.872;2023-03-14T12:39:35;95698.56;;;11.75;75.32
5062;BME280;2351;50.812;12.872;2023-03-14T12:42:11;95699.81;;;11.79;74.86
5062;BME280;2351;50.812;12.872;2023-03-14T12:44:47;95707.91;;;11.71;75.07
5062;BME280;2351;50.812;12.872;2023-03-14T12:47:51;95699.16;;;11.70;74.64
5062;BME280;2351;50.812;12.872;2023-03-14T12:50:31;95706.69;;;11.67;74.21
5062;BME280;2351;50.812;12.872;2023-03-14T12:56:24;95705.44;;;11.34;74.90
5062;BME280;2351;50.812;12.872;2023-03-14T13:02:25;95690.00;;;11.16;75.83
5062;BME280;2351;50.812;12.872;2023-03-14T13:05:09;95683.75;;;11.24;75.77
5062;BME280;2351;50.812;12.872;2023-03-14T13:08:04;95678.66;;;11.22;75.67
5062;BME280;2351;50.812;12.872;2023-03-14T13:10:42;95672.97;;;11.25;76.33
5062;BME280;2351;50.812;12.872;2023-03-14T13:13:20;95668.50;;;11.26;76.18
5062;BME280;2351;50.812;12.872;2023-03-14T13:15:55;95674.53;;;11.20;76.66
5062;BME280;2351;50.812;12.872;2023-03-14T13:18:33;95664.25;;;11.32;77.17
5062;BME280;2351;50.812;12.872;2023-03-14T13:21:11;95667.72;;;11.32;77.16
5062;BME280;2351;50.812;12.872;2023-03-14T13:23:55;95659.63;;;11.40;77.15
5062;BME280;2351;50.812;12.872;2023-03-14T13:26:34;95655.56;;;11.44;75.90
5062;BME280;2351;50.812;12.872;2023-03-14T13:29:15;95652.00;;;11.59;76.63
5062;BME280;2351;50.812;12.872;2023-03-14T13:31:49;95648.25;;;11.82;77.01
5062;BME280;2351;50.812;12.872;2023-03-14T13:34:21;95645.06;;;11.93;76.21
5062;BME280;2351;50.812;12.872;2023-03-14T13:36:54;95648.94;;;11.97;74.45
5062;BME280;2351;50.812;12.872;2023-03-14T13:39:28;95645.78;;;12.15;74.15
5062;BME280;2351;50.812;12.872;2023-03-14T13:42:01;95641.69;;;12.13;73.56
5062;BME280;2351;50.812;12.872;2023-03-14T13:44:34;95651.53;;;12.19;74.67
5062;BME280;2351;50.812;12.872;2023-03-14T13:47:11;95643.84;;;12.44;74.31
5062;BME280;2351;50.812;12.872;2023-03-14T13:49:45;95650.38;;;12.48;73.98
5062;BME280;2351;50.812;12.872;2023-03-14T13:52:30;95646.50;;;12.44;71.76
5062;BME280;2351;50.812;12.872;2023-03-14T13:55:03;95647.22;;;12.18;71.31
5062;BME280;2351;50.812;12.872;2023-03-14T13:57:47;95658.84;;;12.10;72.28
5062;BME280;2351;50.812;12.872;2023-03-14T14:00:21;95649.41;;;12.01;71.96
5062;BME280;2351;50.812;12.872;2023-03-14T14:02:55;95655.72;;;12.00;72.30
5062;BME280;2351;50.812;12.872;2023-03-14T14:05:28;95645.25;;;11.92;73.20
5062;BME280;2351;50.812;12.872;2023-03-14T14:08:04;95645.69;;;11.95;72.89